createdAt,value
2019-02-27T00:00:49.451Z,99.99
2019-02-27T00:01:57.483Z,99.99
2019-02-27T00:03:05.567Z,99.99
2019-02-27T00:04:13.613Z,99.99
2019-02-27T00:05:21.690Z,99.99
2019-02-27T00:06:29.743Z,99.99
2019-02-27T00:07:37.770Z,99.99
2019-02-27T00:08:45.854Z,99.99
2019-02-27T00:09:53.911Z,99.99
2019-02-27T00:11:01.963Z,99.99
2019-02-27T00:12:10.026Z,99.99
2019-02-27T00:13:18.062Z,99.99
2019-02-27T00:14:26.148Z,99.99
2019-02-27T00:15:37.725Z,99.99
2019-02-27T00:16:44.537Z,99.99
2019-02-27T00:17:51.337Z,99.99
2019-02-27T00:18:58.813Z,99.99
2019-02-27T00:20:06.427Z,99.99
2019-02-27T00:21:14.494Z,99.99
2019-02-27T00:22:22.527Z,99.99
2019-02-27T00:23:30.599Z,99.99
2019-02-27T00:24:38.644Z,99.99
2019-02-27T00:25:46.706Z,99.99
2019-02-27T00:26:54.799Z,99.99
2019-02-27T00:28:02.824Z,99.99
2019-02-27T00:29:10.869Z,99.99
2019-02-27T00:30:18.948Z,99.99
2019-02-27T00:31:27.019Z,99.99
2019-02-27T00:32:35.047Z,99.99
2019-02-27T00:33:43.113Z,99.99
2019-02-27T00:34:51.174Z,99.99
2019-02-27T00:35:59.224Z,99.99
2019-02-27T00:37:07.267Z,99.99
2019-02-27T00:38:15.368Z,99.99
2019-02-27T00:39:23.428Z,99.99
2019-02-27T00:40:31.451Z,99.99
2019-02-27T00:41:39.501Z,99.99
2019-02-27T00:42:47.541Z,99.99
2019-02-27T00:43:55.620Z,99.99
2019-02-27T00:45:06.758Z,99.99
2019-02-27T00:46:13.169Z,99.99
2019-02-27T00:47:20.014Z,99.99
2019-02-27T00:48:27.819Z,99.99
2019-02-27T00:49:35.900Z,99.99
2019-02-27T00:50:43.945Z,99.99
2019-02-27T00:51:52.038Z,99.99
2019-02-27T00:53:00.098Z,99.99
2019-02-27T00:54:08.113Z,99.99
2019-02-27T00:55:16.196Z,99.99
2019-02-27T00:56:24.255Z,99.99
2019-02-27T00:57:32.304Z,99.99
2019-02-27T00:58:40.363Z,99.99
2019-02-27T00:59:48.418Z,99.99
2019-02-27T01:00:56.473Z,99.99
2019-02-27T01:02:04.519Z,99.99
2019-02-27T01:03:12.582Z,99.99
2019-02-27T01:04:20.661Z,99.99
2019-02-27T01:05:28.711Z,99.99
2019-02-27T01:06:36.758Z,99.99
2019-02-27T01:07:44.814Z,99.99
2019-02-27T01:08:52.863Z,99.99
2019-02-27T01:10:00.930Z,99.99
2019-02-27T01:11:08.989Z,99.99
2019-02-27T01:12:17.049Z,99.99
2019-02-27T01:13:25.105Z,99.99
2019-02-27T01:14:36.869Z,99.99
2019-02-27T01:15:41.738Z,99.99
2019-02-27T01:16:50.150Z,99.99
2019-02-27T01:17:57.923Z,99.99
2019-02-27T01:19:05.476Z,99.99
2019-02-27T01:20:13.445Z,99.99
2019-02-27T01:21:21.508Z,99.99
2019-02-27T01:22:29.549Z,99.99
2019-02-27T01:23:37.577Z,99.99
2019-02-27T01:24:49.874Z,99.99
2019-02-27T01:25:55.952Z,99.99
2019-02-27T01:27:04.440Z,99.99
2019-02-27T01:28:11.012Z,99.99
2019-02-27T01:29:18.075Z,99.99
2019-02-27T01:30:25.955Z,99.99
2019-02-27T01:31:34.023Z,99.99
2019-02-27T01:32:42.066Z,99.99
2019-02-27T01:33:50.124Z,99.99
2019-02-27T01:34:58.170Z,99.99
2019-02-27T01:36:06.234Z,99.99
2019-02-27T01:37:14.289Z,99.99
2019-02-27T01:38:22.358Z,99.99
2019-02-27T01:39:30.401Z,99.99
2019-02-27T01:40:38.468Z,99.99
2019-02-27T01:41:46.519Z,99.99
2019-02-27T01:42:54.573Z,99.99
2019-02-27T01:44:02.643Z,99.99
2019-02-27T01:45:10.688Z,99.99
2019-02-27T01:46:18.761Z,99.99
2019-02-27T01:47:26.818Z,99.99
2019-02-27T01:48:34.869Z,99.99
2019-02-27T01:49:42.932Z,99.99
2019-02-27T01:50:54.910Z,99.99
2019-02-27T01:52:01.474Z,99.99
2019-02-27T01:53:07.892Z,99.99
2019-02-27T01:54:15.709Z,99.99
2019-02-27T01:55:23.200Z,99.99
2019-02-27T01:56:31.262Z,99.99
2019-02-27T01:57:39.320Z,99.99
2019-02-27T01:58:47.342Z,99.99
2019-02-27T01:59:55.439Z,99.99
2019-02-27T02:01:03.485Z,99.99
2019-02-27T02:02:11.588Z,99.99
2019-02-27T02:03:19.632Z,99.99
2019-02-27T02:04:27.636Z,99.99
2019-02-27T02:05:35.719Z,99.99
2019-02-27T02:06:43.776Z,99.99
2019-02-27T02:07:51.829Z,99.99
2019-02-27T02:08:59.888Z,99.99
2019-02-27T02:10:07.920Z,99.99
2019-02-27T02:11:15.984Z,99.99
2019-02-27T02:12:24.068Z,99.99
2019-02-27T02:13:32.102Z,99.99
2019-02-27T02:14:40.159Z,99.99
2019-02-27T02:15:48.206Z,99.99
2019-02-27T02:16:56.268Z,99.99
2019-02-27T02:18:04.352Z,99.99
2019-02-27T02:19:12.393Z,99.99
2019-02-27T02:20:20.440Z,99.99
2019-02-27T02:21:28.506Z,99.99
2019-02-27T02:22:38.876Z,99.99
2019-02-27T02:23:44.866Z,99.99
2019-02-27T02:24:54.173Z,99.99
2019-02-27T02:26:01.248Z,99.99
2019-02-27T02:27:08.887Z,99.99
2019-02-27T02:28:16.856Z,99.99
2019-02-27T02:29:24.897Z,99.99
2019-02-27T02:30:32.978Z,99.99
2019-02-27T02:31:42.390Z,99.99
2019-02-27T02:32:52.292Z,99.99
2019-02-27T02:33:57.128Z,99.99
2019-02-27T02:35:05.173Z,99.99
2019-02-27T02:36:13.294Z,99.99
2019-02-27T02:37:21.297Z,99.99
2019-02-27T02:38:29.355Z,99.99
2019-02-27T02:39:37.412Z,99.99
2019-02-27T02:40:45.479Z,99.99
2019-02-27T02:41:53.519Z,99.99
2019-02-27T02:43:03.063Z,99.99
2019-02-27T02:44:09.637Z,99.99
2019-02-27T02:45:17.688Z,99.99
2019-02-27T02:46:25.762Z,99.99
2019-02-27T02:47:33.814Z,99.99
2019-02-27T02:48:41.875Z,99.99
2019-02-27T02:49:49.924Z,99.99
2019-02-27T02:50:57.952Z,99.99
2019-02-27T02:52:06.055Z,99.99
2019-02-27T02:53:14.118Z,99.99
2019-02-27T02:54:22.160Z,99.99
2019-02-27T02:55:32.180Z,99.99
2019-02-27T02:56:38.250Z,99.99
2019-02-27T02:57:46.363Z,99.99
2019-02-27T02:58:54.382Z,99.99
2019-02-27T03:00:02.452Z,99.99
2019-02-27T03:01:13.872Z,99.99
2019-02-27T03:02:23.386Z,99.99
2019-02-27T03:03:26.609Z,99.99
2019-02-27T03:04:34.659Z,99.99
2019-02-27T03:05:42.731Z,99.99
2019-02-27T03:06:50.776Z,99.99
2019-02-27T03:07:58.897Z,99.99
2019-02-27T03:09:06.901Z,99.99
2019-02-27T03:10:14.960Z,99.99
2019-02-27T03:11:23.005Z,99.99
2019-02-27T03:12:31.233Z,99.99
2019-02-27T03:13:41.851Z,99.99
2019-02-27T03:14:52.902Z,99.99
2019-02-27T03:15:55.247Z,99.99
2019-02-27T03:17:03.299Z,99.99
2019-02-27T03:18:11.365Z,99.99
2019-02-27T03:19:19.407Z,99.99
2019-02-27T03:20:27.434Z,99.99
2019-02-27T03:21:35.521Z,99.99
2019-02-27T03:22:43.584Z,99.99
2019-02-27T03:23:52.433Z,99.99
2019-02-27T03:25:03.453Z,99.99
2019-02-27T03:26:07.726Z,99.99
2019-02-27T03:27:15.817Z,99.99
2019-02-27T03:28:23.887Z,99.99
2019-02-27T03:29:31.927Z,99.99
2019-02-27T03:30:39.980Z,99.99
2019-02-27T03:31:57.384Z,99.99
2019-02-27T03:32:56.101Z,99.99
2019-02-27T03:34:07.702Z,99.99
2019-02-27T03:35:12.205Z,99.99
2019-02-27T03:36:20.260Z,99.99
2019-02-27T03:37:28.314Z,99.99
2019-02-27T03:38:36.382Z,99.99
2019-02-27T03:39:44.433Z,99.99
2019-02-27T03:40:52.491Z,99.99
2019-02-27T03:42:00.560Z,99.99
2019-02-27T03:43:10.390Z,99.99
2019-02-27T03:44:20.183Z,99.99
2019-02-27T03:45:30.586Z,99.99
2019-02-27T03:46:32.808Z,99.99
2019-02-27T03:47:40.820Z,99.99
2019-02-27T03:48:48.881Z,99.99
2019-02-27T03:49:56.932Z,99.99
2019-02-27T03:51:05.000Z,99.99
2019-02-27T03:52:13.061Z,99.99
2019-02-27T03:53:21.115Z,99.99
2019-02-27T03:54:29.169Z,99.99
2019-02-27T03:55:37.204Z,99.99
2019-02-27T03:56:45.298Z,99.99
2019-02-27T03:57:55.110Z,99.99
2019-02-27T03:59:05.489Z,99.99
2019-02-27T04:00:09.451Z,99.99
2019-02-27T04:01:17.490Z,99.99
2019-02-27T04:02:25.551Z,99.99
2019-02-27T04:03:33.614Z,99.99
2019-02-27T04:04:41.669Z,99.99
2019-02-27T04:05:49.729Z,99.99
2019-02-27T04:06:57.760Z,99.99
2019-02-27T04:08:08.243Z,99.99
2019-02-27T04:09:18.485Z,99.99
2019-02-27T04:10:21.943Z,99.99
2019-02-27T04:11:30.016Z,99.99
2019-02-27T04:12:38.036Z,99.99
2019-02-27T04:13:46.113Z,99.99
2019-02-27T04:14:54.184Z,99.99
2019-02-27T04:16:02.224Z,99.99
2019-02-27T04:17:10.293Z,99.99
2019-02-27T04:18:18.345Z,99.99
2019-02-27T04:19:26.404Z,99.99
2019-02-27T04:20:34.456Z,99.99
2019-02-27T04:21:42.512Z,99.99
2019-02-27T04:22:50.566Z,99.99
2019-02-27T04:23:58.623Z,99.99
2019-02-27T04:25:06.694Z,99.99
2019-02-27T04:26:14.742Z,99.99
2019-02-27T04:27:22.787Z,99.99
2019-02-27T04:28:30.844Z,99.99
2019-02-27T04:29:41.056Z,99.99
2019-02-27T04:30:50.767Z,99.99
2019-02-27T04:31:55.030Z,99.99
2019-02-27T04:33:03.058Z,99.99
2019-02-27T04:34:11.139Z,99.99
2019-02-27T04:35:19.190Z,99.99
2019-02-27T04:36:27.223Z,99.99
2019-02-27T04:37:35.309Z,99.99
2019-02-27T04:38:43.336Z,99.99
2019-02-27T04:39:51.409Z,99.99
2019-02-27T04:40:59.486Z,99.66
2019-02-27T04:42:07.510Z,99.99
2019-02-27T04:43:15.574Z,99.99
2019-02-27T04:44:23.646Z,99.99
2019-02-27T04:45:31.688Z,99.99
2019-02-27T04:46:39.741Z,99.99
2019-02-27T04:47:47.775Z,99.99
2019-02-27T04:48:55.859Z,99.99
2019-02-27T04:50:03.922Z,99.99
2019-02-27T04:51:11.968Z,99.99
2019-02-27T04:52:21.900Z,99.95
2019-02-27T04:53:31.453Z,99.99
2019-02-27T04:54:36.139Z,99.99
2019-02-27T04:55:44.178Z,99.99
2019-02-27T04:56:52.245Z,99.99
2019-02-27T04:58:00.299Z,99.10
2019-02-27T04:59:08.365Z,99.19
2019-02-27T05:00:16.420Z,98.91
2019-02-27T05:01:24.449Z,97.96
2019-02-27T05:02:32.537Z,98.72
2019-02-27T05:03:40.609Z,98.82
2019-02-27T05:04:49.339Z,98.91
2019-02-27T05:05:56.700Z,99.99
2019-02-27T05:07:04.754Z,98.82
2019-02-27T05:08:12.814Z,99.10
2019-02-27T05:09:20.882Z,97.77
2019-02-27T05:10:28.922Z,98.53
2019-02-27T05:11:36.977Z,98.91
2019-02-27T05:12:47.747Z,97.87
2019-02-27T05:13:54.243Z,97.58
2019-02-27T05:15:04.028Z,97.58
2019-02-27T05:16:09.198Z,97.77
2019-02-27T05:17:21.140Z,96.45
2019-02-27T05:18:29.227Z,95.59
2019-02-27T05:19:36.800Z,97.68
2019-02-27T05:20:44.736Z,97.58
2019-02-27T05:21:52.186Z,96.83
2019-02-27T05:23:00.324Z,98.25
2019-02-27T05:24:07.612Z,98.63
2019-02-27T05:25:14.405Z,97.87
2019-02-27T05:26:21.711Z,98.91
2019-02-27T05:27:29.770Z,99.48
2019-02-27T05:28:37.803Z,99.29
2019-02-27T05:29:45.890Z,99.29
2019-02-27T05:30:53.948Z,99.38
2019-02-27T05:32:01.992Z,97.77
2019-02-27T05:33:10.049Z,98.06
2019-02-27T05:34:18.075Z,96.92
2019-02-27T05:35:26.148Z,97.58
2019-02-27T05:36:34.210Z,96.83
2019-02-27T05:37:42.252Z,97.77
2019-02-27T05:38:50.314Z,98.82
2019-02-27T05:39:58.362Z,99.19
2019-02-27T05:41:07.489Z,97.77
2019-02-27T05:42:14.515Z,98.34
2019-02-27T05:43:22.586Z,97.96
2019-02-27T05:44:30.603Z,97.58
2019-02-27T05:45:38.989Z,98.15
2019-02-27T05:46:46.707Z,98.91
2019-02-27T05:47:55.028Z,97.02
2019-02-27T05:49:03.426Z,98.68
2019-02-27T05:50:10.883Z,98.30
2019-02-27T05:51:18.960Z,97.44
2019-02-27T05:52:26.997Z,97.63
2019-02-27T05:53:35.080Z,98.39
2019-02-27T05:54:43.107Z,99.81
2019-02-27T05:55:51.167Z,99.99
2019-02-27T05:56:59.222Z,99.99
2019-02-27T05:58:07.267Z,99.99
2019-02-27T05:59:15.334Z,99.99
2019-02-27T06:00:23.385Z,99.99
2019-02-27T06:01:31.753Z,99.99
2019-02-27T06:02:41.878Z,99.99
2019-02-27T06:03:49.375Z,99.90
2019-02-27T06:04:56.089Z,99.52
2019-02-27T06:06:03.708Z,98.86
2019-02-27T06:07:11.738Z,99.90
2019-02-27T06:08:19.805Z,97.92
2019-02-27T06:09:27.824Z,99.33
2019-02-27T06:10:35.915Z,98.96
2019-02-27T06:11:43.954Z,99.99
2019-02-27T06:12:53.645Z,99.99
2019-02-27T06:14:00.059Z,99.99
2019-02-27T06:15:08.103Z,99.99
2019-02-27T06:16:16.179Z,99.99
2019-02-27T06:17:24.323Z,99.99
2019-02-27T06:18:32.295Z,99.99
2019-02-27T06:19:40.362Z,99.99
2019-02-27T06:20:48.409Z,99.99
2019-02-27T06:21:56.881Z,99.99
2019-02-27T06:23:05.029Z,99.99
2019-02-27T06:24:12.866Z,99.99
2019-02-27T06:25:23.124Z,99.99
2019-02-27T06:26:32.148Z,99.99
2019-02-27T06:27:37.150Z,99.99
2019-02-27T06:28:44.807Z,99.99
2019-02-27T06:29:56.579Z,99.99
2019-02-27T06:31:02.472Z,99.99
2019-02-27T06:32:11.857Z,99.99
2019-02-27T06:33:17.045Z,99.99
2019-02-27T06:34:25.418Z,99.99
2019-02-27T06:35:33.681Z,99.99
2019-02-27T06:36:42.740Z,99.99
2019-02-27T06:37:50.689Z,99.99
2019-02-27T06:39:00.075Z,99.99
2019-02-27T06:40:07.354Z,99.99
2019-02-27T06:41:15.591Z,99.99
2019-02-27T06:42:21.529Z,99.99
2019-02-27T06:43:29.554Z,99.99
2019-02-27T06:44:39.139Z,99.99
2019-02-27T06:45:46.500Z,99.99
2019-02-27T06:46:54.614Z,99.99
2019-02-27T06:48:01.758Z,99.99
2019-02-27T06:49:10.234Z,99.99
2019-02-27T06:50:17.870Z,99.99
2019-02-27T06:51:25.952Z,99.99
2019-02-27T06:52:34.004Z,99.99
2019-02-27T06:53:42.072Z,99.99
2019-02-27T06:54:52.254Z,99.99
2019-02-27T06:56:02.674Z,99.99
2019-02-27T06:57:07.652Z,99.99
2019-02-27T06:58:15.358Z,99.99
2019-02-27T06:59:24.565Z,99.99
2019-02-27T07:00:30.410Z,99.99
2019-02-27T07:01:38.504Z,99.99
2019-02-27T07:02:46.521Z,99.99
2019-02-27T07:03:54.580Z,99.99
2019-02-27T07:05:02.631Z,99.99
2019-02-27T07:06:10.707Z,99.99
2019-02-27T07:07:18.768Z,99.99
2019-02-27T07:08:26.805Z,99.99
2019-02-27T07:09:34.878Z,99.99
2019-02-27T07:10:42.926Z,99.99
2019-02-27T07:11:51.031Z,99.99
2019-02-27T07:12:59.039Z,99.99
2019-02-27T07:14:07.109Z,99.99
2019-02-27T07:15:15.169Z,99.99
2019-02-27T07:16:23.730Z,99.99
2019-02-27T07:17:31.706Z,99.99
2019-02-27T07:18:41.727Z,99.99
2019-02-27T07:19:49.648Z,99.99
2019-02-27T07:20:58.060Z,99.99
2019-02-27T07:22:06.216Z,99.99
2019-02-27T07:23:11.586Z,99.99
2019-02-27T07:24:19.637Z,99.99
2019-02-27T07:25:27.680Z,99.99
2019-02-27T07:26:35.771Z,99.99
2019-02-27T07:27:43.826Z,99.99
2019-02-27T07:28:51.895Z,99.99
2019-02-27T07:29:59.952Z,99.99
2019-02-27T07:31:07.982Z,99.99
2019-02-27T07:32:16.075Z,99.99
2019-02-27T07:33:24.123Z,99.99
2019-02-27T07:34:32.185Z,99.99
2019-02-27T07:35:40.230Z,99.99
2019-02-27T07:36:48.277Z,99.99
2019-02-27T07:37:56.358Z,99.99
2019-02-27T07:39:04.412Z,99.99
2019-02-27T07:40:12.480Z,99.99
2019-02-27T07:41:20.944Z,99.99
2019-02-27T07:42:31.857Z,99.99
2019-02-27T07:43:36.657Z,96.84
2019-02-27T07:44:44.732Z,93.51
2019-02-27T07:45:54.253Z,89.00
2019-02-27T07:47:00.843Z,88.71
2019-02-27T07:48:08.930Z,89.66
2019-02-27T07:49:16.954Z,82.53
2019-02-27T07:50:25.028Z,77.30
2019-02-27T07:51:33.109Z,75.81
2019-02-27T07:52:41.142Z,74.01
2019-02-27T07:53:51.353Z,73.25
2019-02-27T07:54:57.257Z,72.96
2019-02-27T07:56:05.372Z,75.24
2019-02-27T07:57:13.406Z,78.67
2019-02-27T07:58:21.443Z,72.58
2019-02-27T07:59:29.508Z,71.82
2019-02-27T08:00:37.559Z,70.20
2019-02-27T08:01:45.655Z,69.15
2019-02-27T08:02:53.720Z,68.21
2019-02-27T08:04:01.765Z,67.44
2019-02-27T08:05:09.826Z,65.64
2019-02-27T08:06:17.851Z,63.67
2019-02-27T08:07:25.978Z,63.48
2019-02-27T08:08:34.013Z,61.77
2019-02-27T08:09:42.067Z,61.96
2019-02-27T08:10:50.135Z,62.43
2019-02-27T08:11:58.173Z,62.72
2019-02-27T08:13:06.259Z,62.34
2019-02-27T08:14:14.345Z,62.53
2019-02-27T08:15:22.374Z,64.24
2019-02-27T08:16:30.447Z,63.20
2019-02-27T08:17:38.767Z,63.57
2019-02-27T08:18:46.553Z,63.57
2019-02-27T08:19:54.633Z,63.42
2019-02-27T08:21:02.685Z,64.15
2019-02-27T08:22:10.754Z,64.05
2019-02-27T08:23:18.809Z,64.53
2019-02-27T08:24:26.891Z,64.81
2019-02-27T08:25:34.951Z,66.24
2019-02-27T08:26:43.018Z,64.84
2019-02-27T08:27:51.063Z,66.05
2019-02-27T08:28:59.119Z,64.84
2019-02-27T08:30:07.200Z,65.10
2019-02-27T08:31:15.251Z,66.14
2019-02-27T08:32:23.308Z,66.14
2019-02-27T08:33:31.377Z,66.18
2019-02-27T08:34:39.431Z,66.37
2019-02-27T08:35:47.508Z,66.75
2019-02-27T08:36:55.553Z,67.22
2019-02-27T08:38:03.610Z,67.70
2019-02-27T08:39:11.692Z,65.99
2019-02-27T08:40:23.997Z,66.27
2019-02-27T08:41:29.070Z,64.84
2019-02-27T08:42:36.981Z,64.75
2019-02-27T08:43:43.934Z,66.66
2019-02-27T08:44:51.984Z,67.70
2019-02-27T08:46:02.377Z,64.47
2019-02-27T08:47:10.196Z,63.60
2019-02-27T08:48:17.403Z,62.97
2019-02-27T08:49:24.894Z,63.83
2019-02-27T08:50:32.367Z,63.45
2019-02-27T08:51:42.023Z,61.93
2019-02-27T08:52:51.369Z,62.12
2019-02-27T08:53:58.947Z,63.35
2019-02-27T08:55:05.590Z,62.40
2019-02-27T08:56:12.925Z,62.12
2019-02-27T08:57:20.661Z,62.12
2019-02-27T08:58:29.238Z,60.97
2019-02-27T08:59:39.586Z,61.25
2019-02-27T09:00:47.054Z,62.02
2019-02-27T09:01:55.706Z,62.43
2019-02-27T09:03:02.801Z,62.91
2019-02-27T09:04:11.160Z,61.76
2019-02-27T09:05:19.473Z,59.95
2019-02-27T09:06:27.497Z,59.67
2019-02-27T09:07:33.867Z,59.28
2019-02-27T09:08:43.504Z,59.67
2019-02-27T09:09:51.590Z,59.86
2019-02-27T09:10:57.393Z,59.86
2019-02-27T09:12:05.489Z,59.57
2019-02-27T09:13:13.531Z,59.76
2019-02-27T09:14:21.605Z,59.31
2019-02-27T09:15:29.673Z,59.51
2019-02-27T09:16:37.715Z,59.22
2019-02-27T09:17:45.796Z,59.51
2019-02-27T09:18:53.849Z,60.55
2019-02-27T09:20:01.933Z,58.36
2019-02-27T09:21:09.988Z,59.60
2019-02-27T09:22:18.033Z,58.84
2019-02-27T09:23:26.107Z,58.94
2019-02-27T09:24:34.171Z,57.03
2019-02-27T09:25:42.356Z,57.79
2019-02-27T09:26:50.295Z,57.79
2019-02-27T09:27:58.366Z,57.82
2019-02-27T09:29:06.406Z,58.55
2019-02-27T09:30:14.482Z,58.01
2019-02-27T09:31:22.550Z,56.77
2019-02-27T09:32:30.623Z,57.82
2019-02-27T09:33:39.198Z,59.25
2019-02-27T09:34:46.731Z,57.82
2019-02-27T09:35:54.808Z,59.25
2019-02-27T09:37:02.866Z,57.92
2019-02-27T09:38:10.934Z,57.15
2019-02-27T09:39:18.985Z,56.01
2019-02-27T09:40:27.042Z,56.04
2019-02-27T09:41:35.122Z,56.67
2019-02-27T09:42:43.174Z,58.48
2019-02-27T09:43:51.242Z,58.61
2019-02-27T09:44:59.300Z,57.85
2019-02-27T09:46:07.393Z,57.56
2019-02-27T09:47:15.440Z,58.04
2019-02-27T09:48:23.493Z,54.89
2019-02-27T09:49:31.555Z,56.51
2019-02-27T09:50:39.616Z,57.28
2019-02-27T09:51:47.654Z,59.41
2019-02-27T09:52:55.751Z,56.92
2019-02-27T09:54:03.818Z,56.16
2019-02-27T09:55:11.874Z,54.34
2019-02-27T09:56:19.953Z,54.25
2019-02-27T09:57:28.014Z,52.65
2019-02-27T09:58:36.132Z,52.81
2019-02-27T09:59:44.133Z,52.91
2019-02-27T10:00:52.187Z,53.10
2019-02-27T10:02:00.251Z,53.39
2019-02-27T10:03:08.319Z,53.10
2019-02-27T10:04:16.400Z,53.00
2019-02-27T10:05:24.453Z,52.34
2019-02-27T10:06:32.511Z,53.29
2019-02-27T10:07:40.577Z,51.03
2019-02-27T10:08:48.636Z,51.41
2019-02-27T10:09:56.703Z,53.39
2019-02-27T10:11:04.778Z,55.23
2019-02-27T10:12:12.845Z,52.84
2019-02-27T10:13:20.904Z,51.79
2019-02-27T10:14:28.984Z,51.41
2019-02-27T10:15:37.032Z,54.49
2019-02-27T10:16:45.090Z,53.06
2019-02-27T10:17:53.148Z,50.76
2019-02-27T10:19:01.234Z,48.47
2019-02-27T10:20:09.292Z,48.28
2019-02-27T10:21:17.334Z,48.44
2019-02-27T10:22:25.406Z,48.35
2019-02-27T10:23:35.293Z,48.64
2019-02-27T10:24:43.349Z,48.93
2019-02-27T10:25:51.433Z,51.43
2019-02-27T10:26:59.475Z,51.05
2019-02-27T10:28:07.532Z,49.23
2019-02-27T10:29:15.617Z,49.90
2019-02-27T10:30:23.926Z,50.38
2019-02-27T10:31:31.933Z,50.50
2019-02-27T10:32:40.015Z,48.78
2019-02-27T10:33:48.055Z,48.59
2019-02-27T10:34:58.743Z,47.82
2019-02-27T10:36:06.833Z,46.30
2019-02-27T10:37:18.153Z,46.01
2019-02-27T10:38:22.942Z,46.58
2019-02-27T10:39:31.023Z,45.84
2019-02-27T10:40:39.077Z,43.54
2019-02-27T10:41:49.570Z,45.34
2019-02-27T10:42:57.855Z,44.48
2019-02-27T10:44:05.864Z,45.05
2019-02-27T10:45:13.946Z,44.09
2019-02-27T10:46:23.638Z,46.01
2019-02-27T10:47:30.120Z,45.81
2019-02-27T10:48:38.144Z,46.31
2019-02-27T10:49:46.216Z,43.92
2019-02-27T10:50:54.279Z,43.26
2019-02-27T10:52:02.540Z,45.34
2019-02-27T10:53:10.614Z,44.69
2019-02-27T10:54:18.666Z,45.65
2019-02-27T10:55:27.033Z,45.36
2019-02-27T10:56:34.796Z,44.31
2019-02-27T10:57:42.859Z,46.53
2019-02-27T10:58:50.927Z,43.18
2019-02-27T11:00:03.081Z,46.15
2019-02-27T11:01:08.047Z,43.18
2019-02-27T11:02:16.119Z,44.52
2019-02-27T11:03:27.008Z,42.44
2019-02-27T11:04:32.235Z,42.34
2019-02-27T11:05:40.319Z,41.38
2019-02-27T11:08:07.143Z,39.94
2019-02-27T11:09:17.859Z,41.48
2019-02-27T11:10:25.917Z,40.90
2019-02-27T11:11:33.973Z,41.67
2019-02-27T11:12:42.043Z,41.09
2019-02-27T11:13:51.702Z,38.51
2019-02-27T11:14:58.147Z,37.63
2019-02-27T11:16:06.260Z,41.07
2019-02-27T11:17:14.301Z,41.46
2019-02-27T11:19:34.945Z,37.63
2019-02-27T11:20:42.747Z,40.31
2019-02-27T11:21:50.798Z,39.92
2019-02-27T11:22:58.860Z,40.41
2019-02-27T11:24:06.955Z,38.10
2019-02-27T11:25:14.988Z,40.12
2019-02-27T11:26:23.080Z,42.51
2019-02-27T11:27:31.140Z,44.06
2019-02-27T11:28:39.179Z,38.51
2019-02-27T11:29:47.284Z,38.68
2019-02-27T11:30:55.316Z,37.55
2019-02-27T11:32:03.402Z,36.49
2019-02-27T11:33:12.059Z,39.18
2019-02-27T11:34:20.134Z,39.18
2019-02-27T11:35:28.162Z,41.19
2019-02-27T11:36:38.840Z,38.81
2019-02-27T11:37:46.862Z,37.28
2019-02-27T11:38:52.382Z,37.66
2019-02-27T11:40:00.441Z,37.57
2019-02-27T11:41:08.515Z,35.46
2019-02-27T11:42:16.580Z,36.13
2019-02-27T11:43:24.642Z,34.79
2019-02-27T11:44:32.753Z,36.22
2019-02-27T11:45:40.792Z,36.90
2019-02-27T11:46:58.353Z,37.18
2019-02-27T11:47:56.914Z,36.32
2019-02-27T11:49:05.004Z,34.98
2019-02-27T11:50:14.661Z,33.92
2019-02-27T11:51:21.116Z,33.81
2019-02-27T11:52:29.185Z,35.06
2019-02-27T11:53:37.231Z,37.07
2019-02-27T11:54:45.307Z,35.94
2019-02-27T11:55:53.377Z,36.71
2019-02-27T11:57:01.440Z,34.98
2019-02-27T11:58:09.511Z,34.77
2019-02-27T11:59:17.555Z,35.06
2019-02-27T12:00:25.630Z,36.69
2019-02-27T12:01:33.712Z,33.62
2019-02-27T12:02:41.772Z,32.87
2019-02-27T12:03:49.843Z,31.53
2019-02-27T12:04:57.893Z,31.71
2019-02-27T12:06:07.705Z,35.44
2019-02-27T12:07:17.174Z,34.48
2019-02-27T12:08:22.335Z,34.88
2019-02-27T12:09:34.715Z,34.02
2019-02-27T12:10:38.223Z,32.20
2019-02-27T12:11:48.654Z,33.92
2019-02-27T12:12:59.491Z,34.88
2019-02-27T12:14:02.435Z,34.52
2019-02-27T12:15:10.504Z,31.54
2019-02-27T12:16:18.624Z,30.30
2019-02-27T12:17:26.628Z,30.97
2019-02-27T12:18:35.183Z,31.16
2019-02-27T12:19:45.161Z,31.63
2019-02-27T12:20:52.981Z,32.97
2019-02-27T12:22:00.204Z,32.97
2019-02-27T12:23:07.405Z,32.68
2019-02-27T12:24:16.313Z,32.49
2019-02-27T12:25:26.583Z,32.98
2019-02-27T12:26:31.172Z,33.75
2019-02-27T12:27:48.882Z,33.84
2019-02-27T12:28:47.592Z,35.28
2019-02-27T12:29:55.380Z,35.28
2019-02-27T12:31:03.438Z,34.14
2019-02-27T12:32:11.523Z,33.00
2019-02-27T12:33:19.561Z,34.06
2019-02-27T12:34:27.619Z,35.00
2019-02-27T12:35:35.691Z,32.70
2019-02-27T12:36:43.762Z,34.53
2019-02-27T12:37:51.835Z,31.95
2019-02-27T12:38:59.898Z,31.85
2019-02-27T12:40:07.962Z,32.62
2019-02-27T12:41:16.032Z,30.22
2019-02-27T12:42:24.097Z,29.16
2019-02-27T12:43:32.200Z,29.24
2019-02-27T12:44:40.235Z,30.78
2019-02-27T12:45:48.333Z,31.45
2019-02-27T12:46:56.357Z,32.03
2019-02-27T12:48:04.435Z,31.93
2019-02-27T12:49:12.502Z,32.81
2019-02-27T12:50:20.565Z,29.74
2019-02-27T12:51:28.649Z,29.82
2019-02-27T12:52:36.713Z,29.72
2019-02-27T12:53:44.770Z,29.72
2019-02-27T12:54:52.836Z,29.53
2019-02-27T12:56:00.900Z,29.24
2019-02-27T12:57:08.973Z,30.49
2019-02-27T12:58:17.042Z,30.49
2019-02-27T12:59:25.110Z,31.37
2019-02-27T13:00:33.173Z,32.33
2019-02-27T13:01:41.238Z,31.37
2019-02-27T13:02:49.321Z,30.22
2019-02-27T13:03:57.338Z,29.26
2019-02-27T13:05:05.451Z,27.34
2019-02-27T13:06:13.523Z,27.72
2019-02-27T13:07:21.619Z,28.49
2019-02-27T13:08:29.633Z,28.78
2019-02-27T13:09:37.693Z,28.78
2019-02-27T13:10:45.788Z,29.74
2019-02-27T13:11:53.838Z,32.33
2019-02-27T13:13:01.906Z,33.19
2019-02-27T13:14:09.998Z,31.66
2019-02-27T13:15:18.028Z,31.56
2019-02-27T13:16:26.150Z,30.12
2019-02-27T13:17:34.176Z,31.66
2019-02-27T13:18:42.254Z,32.23
2019-02-27T13:19:50.302Z,33.58
2019-02-27T13:20:58.365Z,34.15
2019-02-27T13:22:06.444Z,33.96
2019-02-27T13:23:14.514Z,33.21
2019-02-27T13:24:22.572Z,33.21
2019-02-27T13:25:30.643Z,35.13
2019-02-27T13:26:38.721Z,33.98
2019-02-27T13:27:46.776Z,33.98
2019-02-27T13:28:54.844Z,33.69
2019-02-27T13:30:08.574Z,33.88
2019-02-27T13:31:13.523Z,34.07
2019-02-27T13:32:19.041Z,33.78
2019-02-27T13:33:27.108Z,31.10
2019-02-27T13:34:35.216Z,31.38
2019-02-27T13:35:43.240Z,28.50
2019-02-27T13:36:51.328Z,28.99
2019-02-27T13:37:59.388Z,29.47
2019-02-27T13:39:07.421Z,30.14
2019-02-27T13:40:15.517Z,30.33
2019-02-27T13:41:23.844Z,30.90
2019-02-27T13:42:31.649Z,31.96
2019-02-27T13:43:39.731Z,31.56
2019-02-27T13:44:47.780Z,30.62
2019-02-27T13:45:55.866Z,33.78
2019-02-27T13:47:03.917Z,34.07
2019-02-27T13:48:11.998Z,33.78
2019-02-27T13:49:20.053Z,32.82
2019-02-27T13:50:28.126Z,32.06
2019-02-27T13:51:36.642Z,33.88
2019-02-27T13:52:46.885Z,31.87
2019-02-27T13:53:52.335Z,30.90
2019-02-27T13:55:00.437Z,32.06
2019-02-27T13:56:08.455Z,32.54
2019-02-27T13:57:16.516Z,30.71
2019-02-27T13:58:24.615Z,30.14
2019-02-27T13:59:32.642Z,30.71
2019-02-27T14:00:40.719Z,30.23
2019-02-27T14:01:48.798Z,29.27
2019-02-27T14:02:56.846Z,29.08
2019-02-27T14:04:04.939Z,30.62
2019-02-27T14:05:12.997Z,29.85
2019-02-27T14:06:21.046Z,31.48
2019-02-27T14:07:29.125Z,31.67
2019-02-27T14:08:37.191Z,31.58
2019-02-27T14:09:45.249Z,29.56
2019-02-27T14:10:53.964Z,32.25
2019-02-27T14:12:01.862Z,31.20
2019-02-27T14:13:09.908Z,31.10
2019-02-27T14:14:18.369Z,28.50
2019-02-27T14:15:27.180Z,26.59
2019-02-27T14:16:34.719Z,26.09
2019-02-27T14:17:42.150Z,27.45
2019-02-27T14:18:50.537Z,28.70
2019-02-27T14:19:57.892Z,32.73
2019-02-27T14:21:05.926Z,31.29
2019-02-27T14:22:13.986Z,29.47
2019-02-27T14:23:22.053Z,28.60
2019-02-27T14:24:30.122Z,28.70
2019-02-27T14:25:38.193Z,30.23
2019-02-27T14:26:46.260Z,33.01
2019-02-27T14:27:54.332Z,29.85
2019-02-27T14:29:04.079Z,28.88
2019-02-27T14:30:10.450Z,28.20
2019-02-27T14:31:18.552Z,30.22
2019-02-27T14:32:26.588Z,29.06
2019-02-27T14:33:34.665Z,28.01
2019-02-27T14:34:42.733Z,27.44
2019-02-27T14:35:50.788Z,29.35
2019-02-27T14:36:58.857Z,28.78
2019-02-27T14:38:06.926Z,29.16
2019-02-27T14:39:15.011Z,28.39